createdAt,value
2022-10-18T00:02:16.189Z,89.60
2022-10-18T00:04:42.480Z,93.78
2022-10-18T00:07:08.726Z,99.43
2022-10-18T00:09:34.996Z,90.05
2022-10-18T00:12:01.260Z,92.00
2022-10-18T00:14:27.517Z,94.85
2022-10-18T00:16:53.771Z,92.47
2022-10-18T00:19:20.019Z,88.53
2022-10-18T00:21:46.278Z,87.32
2022-10-18T00:24:12.537Z,93.15
2022-10-18T00:26:38.818Z,93.28
2022-10-18T00:29:05.072Z,87.75
2022-10-18T00:31:31.338Z,94.70
2022-10-18T00:33:57.605Z,95.03
2022-10-18T00:36:23.872Z,89.38
2022-10-18T00:38:50.167Z,89.63
2022-10-18T00:41:16.583Z,88.53
2022-10-18T00:43:42.843Z,86.22
2022-10-18T00:46:09.099Z,87.60
2022-10-18T00:48:35.464Z,97.95
2022-10-18T00:51:01.727Z,89.40
2022-10-18T00:53:27.985Z,83.25
2022-10-18T00:55:54.230Z,80.05
2022-10-18T00:58:20.500Z,83.63
2022-10-18T01:00:46.764Z,93.07
2022-10-18T01:03:13.015Z,79.65
2022-10-18T01:05:39.302Z,82.18
2022-10-18T01:08:05.581Z,82.47
2022-10-18T01:10:31.887Z,103.68
2022-10-18T01:12:58.146Z,109.38
2022-10-18T01:15:24.407Z,91.80
2022-10-18T01:17:50.840Z,109.28
2022-10-18T01:20:17.103Z,127.60
2022-10-18T01:22:43.363Z,133.38
2022-10-18T01:25:09.622Z,127.15
2022-10-18T01:27:36.166Z,114.22
2022-10-18T01:30:02.472Z,98.97
2022-10-18T01:32:28.743Z,88.43
2022-10-18T01:34:55.006Z,97.32
2022-10-18T01:37:21.340Z,95.35
2022-10-18T01:39:47.914Z,109.15
2022-10-18T01:42:14.187Z,111.47
2022-10-18T01:44:40.446Z,137.43
2022-10-18T01:47:06.699Z,106.22
2022-10-18T01:49:33.376Z,112.78
2022-10-18T01:51:59.704Z,120.80
2022-10-18T01:54:25.986Z,113.88
2022-10-18T01:56:52.234Z,122.32
2022-10-18T01:59:18.516Z,101.93
2022-10-18T02:01:44.789Z,118.72
2022-10-18T02:04:11.035Z,97.47
2022-10-18T02:06:37.299Z,120.05
2022-10-18T02:09:03.572Z,138.98
2022-10-18T02:11:29.821Z,130.07
2022-10-18T02:13:56.098Z,134.13
2022-10-18T02:16:22.357Z,117.43
2022-10-18T02:18:48.635Z,136.05
2022-10-18T02:21:14.891Z,161.50
2022-10-18T02:23:41.147Z,155.75
2022-10-18T02:26:07.405Z,83.07
2022-10-18T02:28:33.677Z,89.13
2022-10-18T02:30:59.959Z,69.63
2022-10-18T02:33:26.219Z,67.60
2022-10-18T02:35:52.503Z,66.80
2022-10-18T02:38:18.737Z,68.50
2022-10-18T02:40:45.022Z,64.00
2022-10-18T02:43:11.303Z,63.58
2022-10-18T02:45:37.565Z,64.38
2022-10-18T02:48:03.826Z,81.88
2022-10-18T02:50:30.066Z,82.75
2022-10-18T02:52:56.312Z,80.38
2022-10-18T02:55:22.597Z,65.40
2022-10-18T02:57:48.884Z,80.13
2022-10-18T03:00:15.153Z,139.30
2022-10-18T03:02:41.401Z,170.13
2022-10-18T03:05:07.672Z,126.28
2022-10-18T03:07:34.195Z,152.80
2022-10-18T03:10:00.598Z,102.50
2022-10-18T03:12:26.847Z,82.47
2022-10-18T03:14:53.129Z,113.22
2022-10-18T03:17:19.393Z,120.82
2022-10-18T03:19:45.685Z,129.30
2022-10-18T03:22:11.950Z,122.95
2022-10-18T03:24:38.216Z,109.90
2022-10-18T03:27:04.478Z,124.05
2022-10-18T03:29:30.778Z,112.35
2022-10-18T03:31:57.030Z,113.40
2022-10-18T03:34:23.309Z,106.15
2022-10-18T03:36:49.643Z,132.52
2022-10-18T03:39:16.033Z,115.03
2022-10-18T03:41:42.314Z,113.45
2022-10-18T03:44:08.568Z,128.75
2022-10-18T03:46:34.841Z,130.15
2022-10-18T03:49:01.130Z,91.90
2022-10-18T03:51:27.432Z,96.55
2022-10-18T03:53:53.688Z,102.78
2022-10-18T03:56:19.968Z,108.30
2022-10-18T03:58:46.235Z,83.63
2022-10-18T04:01:12.597Z,97.68
2022-10-18T04:03:38.898Z,105.97
2022-10-18T04:06:05.220Z,110.13
2022-10-18T04:08:31.474Z,106.82
2022-10-18T04:10:57.774Z,109.13
2022-10-18T04:13:24.030Z,137.98
2022-10-18T04:15:50.311Z,139.02
2022-10-18T04:18:16.570Z,151.85
2022-10-18T04:20:42.825Z,136.63
2022-10-18T04:23:09.089Z,140.88
2022-10-18T04:25:35.371Z,140.63
2022-10-18T04:28:01.683Z,136.52
2022-10-18T04:30:27.936Z,141.50
2022-10-18T04:32:54.190Z,127.10
2022-10-18T04:35:24.323Z,137.38
2022-10-18T04:37:50.858Z,138.43
2022-10-18T04:40:17.125Z,136.07
2022-10-18T04:42:43.376Z,143.88
2022-10-18T04:45:09.631Z,146.90
2022-10-18T04:47:35.891Z,153.20
2022-10-18T04:50:02.148Z,144.10
2022-10-18T04:52:28.410Z,128.55
2022-10-18T04:54:54.667Z,104.00
2022-10-18T04:57:20.937Z,100.80
2022-10-18T04:59:47.212Z,101.15
2022-10-18T05:02:13.480Z,91.88
2022-10-18T05:04:39.739Z,101.63
2022-10-18T05:07:06.585Z,102.35
2022-10-18T05:09:32.858Z,106.32
2022-10-18T05:11:59.156Z,118.70
2022-10-18T05:14:25.410Z,130.35
2022-10-18T05:16:51.669Z,133.52
2022-10-18T05:19:17.986Z,131.55
2022-10-18T05:21:44.249Z,122.38
2022-10-18T05:24:10.498Z,112.70
2022-10-18T05:26:36.804Z,99.70
2022-10-18T05:29:03.115Z,93.18
2022-10-18T05:31:29.459Z,107.55
2022-10-18T05:33:55.744Z,117.30
2022-10-18T05:36:22.032Z,112.70
2022-10-18T05:38:48.360Z,108.65
2022-10-18T05:41:14.646Z,89.90
2022-10-18T05:43:40.955Z,80.97
2022-10-18T05:46:13.493Z,90.78
2022-10-18T05:48:41.333Z,95.35
2022-10-18T05:51:07.616Z,99.95
2022-10-18T05:53:37.999Z,122.45
2022-10-18T05:56:04.664Z,144.13
2022-10-18T05:58:30.927Z,111.57
2022-10-18T06:00:57.197Z,97.70
2022-10-18T06:03:23.443Z,88.55
2022-10-18T06:05:49.856Z,81.28
2022-10-18T06:08:16.122Z,81.40
2022-10-18T06:10:42.399Z,91.07
2022-10-18T06:13:08.654Z,86.78
2022-10-18T06:15:34.963Z,94.13
2022-10-18T06:18:01.206Z,101.88
2022-10-18T06:20:27.496Z,106.32
2022-10-18T06:22:53.781Z,105.50
2022-10-18T06:25:20.030Z,97.15
2022-10-18T06:27:46.335Z,101.85
2022-10-18T06:30:12.672Z,108.15
2022-10-18T06:32:38.914Z,112.80
2022-10-18T06:35:05.163Z,104.15
2022-10-18T06:37:31.704Z,117.45
2022-10-18T06:39:58.231Z,138.48
2022-10-18T06:42:24.491Z,143.65
2022-10-18T06:44:50.759Z,141.45
2022-10-18T06:47:17.047Z,116.68
2022-10-18T06:49:43.319Z,103.32
2022-10-18T06:52:09.581Z,92.10
2022-10-18T06:54:35.955Z,95.18
2022-10-18T06:57:02.671Z,79.32
2022-10-18T06:59:31.190Z,77.88
2022-10-18T07:01:57.928Z,79.35
2022-10-18T07:04:24.237Z,85.85
2022-10-18T07:06:50.486Z,85.72
2022-10-18T07:09:16.765Z,89.82
2022-10-18T07:11:43.013Z,90.10
2022-10-18T07:14:12.537Z,76.78
2022-10-18T07:16:41.863Z,91.55
2022-10-18T07:19:08.225Z,94.95
2022-10-18T07:21:34.467Z,77.22
2022-10-18T07:24:00.741Z,78.95
2022-10-18T07:26:27.273Z,81.38
2022-10-18T07:28:55.081Z,130.60
2022-10-18T07:31:21.416Z,133.18
2022-10-18T07:33:47.691Z,102.10
2022-10-18T07:36:13.971Z,92.97
2022-10-18T07:38:40.237Z,89.40
2022-10-18T07:41:06.866Z,109.45
2022-10-18T07:43:33.119Z,109.38
2022-10-18T07:45:59.401Z,85.10
2022-10-18T07:48:25.653Z,86.43
2022-10-18T07:50:51.911Z,109.78
2022-10-18T07:53:18.163Z,87.20
2022-10-18T07:55:44.720Z,85.70
2022-10-18T07:58:10.981Z,109.22
2022-10-18T08:00:37.231Z,101.95
2022-10-18T08:03:03.496Z,99.20
2022-10-18T08:05:29.905Z,103.28
2022-10-18T08:07:56.262Z,104.95
2022-10-18T08:10:22.518Z,80.85
2022-10-18T08:12:48.818Z,80.82
2022-10-18T08:15:15.077Z,88.70
2022-10-18T08:17:43.441Z,85.43
2022-10-18T08:20:12.255Z,82.72
2022-10-18T08:22:45.375Z,70.47
2022-10-18T08:25:11.636Z,74.85
2022-10-18T08:27:37.892Z,77.30
2022-10-18T08:30:04.147Z,84.13
2022-10-18T08:32:30.773Z,80.50
2022-10-18T08:34:57.202Z,95.43
2022-10-18T08:37:23.463Z,119.95
2022-10-18T08:39:49.710Z,104.18
2022-10-18T08:42:15.980Z,83.05
2022-10-18T08:44:42.224Z,89.20
2022-10-18T08:47:08.506Z,110.93
2022-10-18T08:49:34.850Z,90.38
2022-10-18T08:52:01.108Z,95.05
2022-10-18T08:54:27.398Z,117.10
2022-10-18T08:56:53.651Z,120.55
2022-10-18T08:59:23.286Z,128.75
2022-10-18T09:01:51.722Z,124.57
2022-10-18T09:04:17.975Z,114.32
2022-10-18T09:06:44.549Z,110.75
2022-10-18T09:09:10.809Z,127.82
2022-10-18T09:11:37.060Z,124.03
2022-10-18T09:14:03.371Z,108.72
2022-10-18T09:16:29.627Z,82.40
2022-10-18T09:18:57.259Z,81.65
2022-10-18T09:21:23.519Z,86.75
2022-10-18T09:23:49.820Z,86.80
2022-10-18T09:26:16.147Z,85.38
2022-10-18T09:28:42.469Z,84.57
2022-10-18T09:31:08.783Z,95.93
2022-10-18T09:33:35.069Z,101.50
2022-10-18T09:36:01.349Z,95.30
2022-10-18T09:38:27.666Z,156.48
2022-10-18T09:40:53.920Z,171.32
2022-10-18T09:43:20.199Z,114.32
2022-10-18T09:45:46.467Z,96.70
2022-10-18T09:48:12.756Z,84.30
2022-10-18T09:50:39.060Z,77.18
2022-10-18T09:53:06.393Z,91.47
2022-10-18T09:55:32.660Z,215.40
2022-10-18T09:57:58.940Z,206.50
2022-10-18T10:00:25.200Z,107.97
2022-10-18T10:02:51.494Z,70.75
2022-10-18T10:05:17.798Z,76.00
2022-10-18T10:07:44.070Z,77.35
2022-10-18T10:10:10.341Z,173.35
2022-10-18T10:12:36.630Z,227.32
2022-10-18T10:15:02.892Z,999.90
2022-10-18T10:17:29.712Z,999.90
2022-10-18T10:19:56.723Z,999.90
2022-10-18T10:22:22.986Z,999.90
2022-10-18T10:24:49.242Z,999.90
2022-10-18T10:27:15.611Z,999.90
2022-10-18T10:29:44.813Z,999.90
2022-10-18T10:32:11.347Z,999.90
2022-10-18T10:34:39.833Z,999.90
2022-10-18T10:37:08.652Z,999.90
2022-10-18T10:39:34.901Z,999.90
2022-10-18T10:42:01.233Z,999.90
2022-10-18T10:44:27.487Z,999.90
2022-10-18T10:46:54.723Z,999.90
2022-10-18T10:49:39.664Z,999.90
2022-10-18T10:52:08.876Z,999.90
2022-10-18T10:54:41.812Z,999.90
2022-10-18T10:57:12.416Z,999.90
2022-10-18T10:59:38.748Z,999.90
2022-10-18T11:02:05.025Z,999.90
2022-10-18T11:04:31.312Z,999.90
2022-10-18T11:06:57.931Z,999.90
2022-10-18T11:09:24.192Z,999.90
2022-10-18T11:11:50.525Z,999.90
2022-10-18T11:14:32.084Z,999.90
2022-10-18T11:16:58.362Z,154.95
2022-10-18T11:19:26.406Z,234.18
2022-10-18T11:21:54.659Z,311.08
2022-10-18T11:24:20.917Z,237.48
2022-10-18T11:26:50.019Z,215.63
2022-10-18T11:29:19.826Z,217.52
2022-10-18T11:31:46.098Z,291.95
2022-10-18T11:34:12.348Z,222.07
2022-10-18T11:36:45.375Z,155.60
2022-10-18T11:39:22.778Z,141.43
2022-10-18T11:41:49.193Z,105.25
2022-10-18T11:44:15.464Z,114.18
2022-10-18T11:46:41.739Z,134.65
2022-10-18T11:49:08.008Z,171.88
2022-10-18T11:51:50.289Z,177.98
2022-10-18T11:54:20.756Z,159.32
2022-10-18T11:56:47.007Z,175.35
2022-10-18T11:59:13.305Z,161.02
2022-10-18T12:01:39.571Z,143.88
2022-10-18T12:04:05.879Z,129.45
2022-10-18T12:06:32.126Z,136.88
2022-10-18T12:08:59.490Z,139.15
2022-10-18T12:11:25.770Z,135.45
2022-10-18T12:13:52.070Z,128.43
2022-10-18T12:16:18.331Z,107.25
2022-10-18T12:18:44.616Z,107.65
2022-10-18T12:21:10.932Z,115.05
2022-10-18T12:23:37.272Z,117.97
2022-10-18T12:26:03.550Z,89.40
2022-10-18T12:28:29.892Z,92.40
2022-10-18T12:30:56.206Z,95.18
2022-10-18T12:33:28.385Z,102.40
2022-10-18T12:35:55.181Z,93.72
2022-10-18T12:38:21.472Z,106.93
2022-10-18T12:40:48.063Z,102.55
2022-10-18T12:43:14.371Z,127.43
2022-10-18T12:45:40.620Z,139.82
2022-10-18T12:48:06.899Z,153.60
2022-10-18T12:50:34.673Z,107.45
2022-10-18T12:53:00.921Z,190.30
2022-10-18T12:55:27.274Z,174.55
2022-10-18T12:57:53.565Z,180.38
2022-10-18T13:00:19.833Z,188.82
2022-10-18T13:02:46.082Z,207.32
2022-10-18T13:05:21.290Z,215.75
2022-10-18T13:07:58.599Z,233.00
2022-10-18T13:10:24.903Z,203.90
2022-10-18T13:12:51.186Z,206.32
2022-10-18T13:15:26.993Z,182.50
2022-10-18T13:17:54.023Z,187.23
2022-10-18T13:20:25.993Z,214.75
2022-10-18T13:22:52.947Z,159.05
2022-10-18T13:25:19.211Z,166.50
2022-10-18T13:27:45.862Z,165.30
2022-10-18T13:30:12.330Z,181.38
2022-10-18T13:32:38.575Z,193.27
2022-10-18T13:35:04.847Z,199.35
2022-10-18T13:37:31.145Z,181.20
2022-10-18T13:39:57.426Z,148.60
2022-10-18T13:42:23.684Z,193.43
2022-10-18T13:44:49.997Z,219.32
2022-10-18T13:47:16.295Z,264.80
2022-10-18T13:49:42.542Z,228.85
2022-10-18T13:52:08.822Z,224.55
2022-10-18T13:54:35.084Z,135.00
2022-10-18T13:57:01.414Z,128.80
2022-10-18T13:59:27.705Z,121.43
2022-10-18T14:01:54.058Z,106.13
2022-10-18T14:04:20.369Z,106.05
2022-10-18T14:06:46.637Z,126.15
2022-10-18T14:09:25.750Z,165.05
2022-10-18T14:11:59.716Z,127.45
2022-10-18T14:14:26.594Z,127.25
2022-10-18T14:16:52.866Z,142.13
2022-10-18T14:19:19.127Z,148.70
2022-10-18T14:21:45.392Z,161.45
2022-10-18T14:24:11.666Z,126.63
2022-10-18T14:29:09.158Z,137.40
2022-10-18T14:31:35.529Z,127.03
2022-10-18T14:34:01.863Z,150.18
2022-10-18T14:36:28.193Z,164.50
2022-10-18T14:38:54.460Z,181.88
2022-10-18T14:41:20.723Z,192.60
2022-10-18T14:43:48.228Z,235.77
2022-10-18T14:46:14.503Z,178.05
2022-10-18T14:48:40.958Z,217.75
2022-10-18T14:51:07.219Z,118.05
2022-10-18T14:53:35.828Z,171.07
2022-10-18T14:56:04.022Z,139.77
2022-10-18T14:58:30.300Z,154.40
2022-10-18T15:00:56.660Z,105.18
2022-10-18T15:03:23.024Z,111.70
2022-10-18T15:05:49.283Z,112.90
2022-10-18T15:08:15.546Z,170.63
2022-10-18T15:10:41.798Z,165.70
2022-10-18T15:13:10.481Z,178.40
2022-10-18T15:15:37.300Z,263.48
2022-10-18T15:18:05.165Z,164.85
2022-10-18T15:20:31.860Z,172.48
2022-10-18T15:22:58.119Z,191.98
2022-10-18T15:25:27.938Z,186.35
2022-10-18T15:27:57.710Z,170.05
2022-10-18T15:30:24.497Z,193.18
2022-10-18T15:32:50.764Z,231.38
2022-10-18T15:35:18.503Z,237.85
2022-10-18T15:37:47.305Z,197.43
2022-10-18T15:40:13.778Z,232.10
2022-10-18T15:42:40.075Z,240.85
2022-10-18T15:45:06.344Z,174.05
2022-10-18T15:47:32.897Z,253.95
2022-10-18T15:49:59.365Z,230.95
2022-10-18T15:52:25.632Z,266.60
2022-10-18T15:54:51.903Z,147.93
2022-10-18T15:57:18.183Z,167.50
2022-10-18T15:59:44.448Z,246.55
2022-10-18T16:02:10.712Z,469.88
2022-10-18T16:04:36.972Z,329.38
2022-10-18T16:07:03.347Z,205.80
2022-10-18T16:09:29.597Z,214.55
2022-10-18T16:11:57.408Z,306.85
2022-10-18T16:16:50.016Z,270.92
2022-10-18T16:19:18.559Z,220.23
2022-10-18T16:21:44.813Z,227.65
2022-10-18T16:24:11.064Z,233.30
2022-10-18T16:26:37.340Z,228.90
2022-10-18T16:29:03.657Z,324.00
2022-10-18T16:31:30.041Z,295.83
2022-10-18T16:33:56.321Z,346.45
2022-10-18T16:36:22.616Z,365.23
2022-10-18T16:38:48.904Z,370.33
2022-10-18T16:41:15.811Z,405.20
2022-10-18T16:43:42.131Z,389.52
2022-10-18T16:46:08.444Z,378.50
2022-10-18T16:48:34.789Z,278.42
2022-10-18T16:51:01.052Z,153.73
2022-10-18T16:53:27.894Z,122.82
2022-10-18T16:55:54.456Z,131.63
2022-10-18T16:58:20.853Z,122.47
2022-10-18T17:00:47.192Z,118.85
2022-10-18T17:03:13.447Z,98.75
2022-10-18T17:05:39.728Z,97.85
2022-10-18T17:08:05.971Z,97.90
2022-10-18T17:10:32.254Z,102.43
2022-10-18T17:12:58.572Z,109.82
2022-10-18T17:15:24.831Z,113.43
2022-10-18T17:17:51.127Z,109.75
2022-10-18T17:20:17.454Z,92.78
2022-10-18T17:22:43.715Z,95.28
2022-10-18T17:25:09.975Z,88.53
2022-10-18T17:27:36.256Z,85.88
2022-10-18T17:30:02.498Z,83.50
2022-10-18T17:32:28.796Z,75.80
2022-10-18T17:34:55.043Z,74.03
2022-10-18T17:37:21.295Z,74.90
2022-10-18T17:39:47.591Z,71.10
2022-10-18T17:42:13.854Z,72.57
2022-10-18T17:44:40.116Z,73.95
2022-10-18T17:47:06.405Z,76.18
2022-10-18T17:49:32.686Z,85.30
2022-10-18T17:52:01.158Z,99.07
2022-10-18T17:54:30.732Z,116.93
2022-10-18T17:56:57.003Z,133.27
2022-10-18T17:59:23.289Z,132.48
2022-10-18T18:01:49.559Z,140.25
2022-10-18T18:04:16.976Z,130.57
2022-10-18T18:06:45.267Z,115.78
2022-10-18T18:09:11.510Z,144.57
2022-10-18T18:11:37.974Z,137.38
2022-10-18T18:14:08.813Z,87.20
2022-10-18T18:16:35.356Z,63.72
2022-10-18T18:19:04.022Z,67.55
2022-10-18T18:21:31.368Z,64.97
2022-10-18T18:23:57.615Z,70.93
2022-10-18T18:26:23.915Z,78.22
2022-10-18T18:28:50.328Z,66.00
2022-10-18T18:31:16.687Z,68.47
2022-10-18T18:33:42.951Z,69.35
2022-10-18T18:36:09.265Z,62.97
2022-10-18T18:38:35.511Z,68.50
2022-10-18T18:41:01.768Z,64.63
2022-10-18T18:43:28.074Z,81.00
2022-10-18T18:45:54.402Z,94.35
2022-10-18T18:48:20.816Z,93.97
2022-10-18T18:50:51.750Z,97.57
2022-10-18T18:53:18.003Z,94.32
2022-10-18T18:55:44.303Z,105.68
2022-10-18T18:58:10.575Z,109.90
2022-10-18T19:00:40.393Z,71.53
2022-10-18T19:03:10.112Z,98.75
2022-10-18T19:05:36.507Z,82.20
2022-10-18T19:08:02.750Z,84.40
2022-10-18T19:10:29.007Z,85.60
2022-10-18T19:12:55.258Z,99.10
2022-10-18T19:15:21.507Z,142.77
2022-10-18T19:17:47.792Z,140.00
2022-10-18T19:20:15.184Z,90.30
2022-10-18T19:22:41.473Z,101.35
2022-10-18T19:25:07.898Z,111.57
2022-10-18T19:27:34.409Z,114.53
2022-10-18T19:30:01.014Z,114.63
2022-10-18T19:34:58.458Z,96.72
2022-10-18T19:37:24.716Z,109.55
2022-10-18T19:39:50.995Z,119.82
2022-10-18T19:42:20.513Z,98.10
2022-10-18T19:44:50.492Z,97.68
2022-10-18T19:47:16.747Z,92.97
2022-10-18T19:49:43.125Z,87.30
2022-10-18T19:52:09.378Z,74.22
2022-10-18T19:54:35.702Z,79.47
2022-10-18T19:57:01.947Z,77.93
2022-10-18T19:59:28.239Z,72.72
2022-10-18T20:01:54.571Z,85.35
2022-10-18T20:04:20.828Z,86.10
2022-10-18T20:06:47.712Z,90.03
2022-10-18T20:09:17.676Z,85.65
2022-10-18T20:11:46.765Z,101.10
2022-10-18T20:14:13.030Z,109.45
2022-10-18T20:16:39.351Z,109.38
2022-10-18T20:19:05.708Z,117.65
2022-10-18T20:21:35.399Z,106.07
2022-10-18T20:24:01.656Z,102.72
2022-10-18T20:26:27.918Z,95.68
2022-10-18T20:28:58.060Z,90.32
2022-10-18T20:31:24.567Z,77.38
2022-10-18T20:33:50.817Z,85.53
2022-10-18T20:36:17.072Z,70.97
2022-10-18T20:38:43.332Z,69.35
2022-10-18T20:41:09.575Z,64.20
2022-10-18T20:43:35.846Z,68.32
2022-10-18T20:46:02.101Z,66.35
2022-10-18T20:48:28.351Z,70.38
2022-10-18T20:50:54.600Z,76.45
2022-10-18T20:53:22.204Z,88.43
2022-10-18T20:55:48.496Z,86.65
2022-10-18T20:58:14.743Z,75.65
2022-10-18T21:00:40.996Z,84.40
2022-10-18T21:03:07.406Z,120.57
2022-10-18T21:05:33.720Z,149.13
2022-10-18T21:07:59.990Z,115.75
2022-10-18T21:10:26.242Z,148.30
2022-10-18T21:12:52.499Z,138.52
2022-10-18T21:15:18.750Z,162.05
2022-10-18T21:17:44.998Z,129.00
2022-10-18T21:20:11.264Z,111.28
2022-10-18T21:22:37.525Z,93.10
2022-10-18T21:25:03.771Z,80.00
2022-10-18T21:27:30.058Z,84.72
2022-10-18T21:29:56.302Z,83.68
2022-10-18T21:32:22.546Z,84.18
2022-10-18T21:34:48.791Z,98.60
2022-10-18T21:37:15.068Z,103.15
2022-10-18T21:39:42.230Z,136.45
2022-10-18T21:42:08.733Z,166.00
2022-10-18T21:44:35.001Z,159.18
2022-10-18T21:47:01.266Z,153.40
2022-10-18T21:49:29.040Z,111.40
2022-10-18T21:51:55.293Z,138.18
2022-10-18T21:54:21.542Z,101.65
2022-10-18T21:56:47.812Z,150.05
2022-10-18T21:59:14.084Z,112.30
2022-10-18T22:01:40.339Z,124.70
2022-10-18T22:04:06.632Z,188.25
2022-10-18T22:09:04.829Z,181.68
2022-10-18T22:11:31.070Z,197.27
2022-10-18T22:13:57.388Z,214.20
2022-10-18T22:16:23.659Z,204.85
2022-10-18T22:18:49.924Z,119.60
2022-10-18T22:21:16.263Z,110.78
2022-10-18T22:23:42.532Z,135.57
2022-10-18T22:26:08.865Z,141.50
2022-10-18T22:28:35.153Z,141.10
2022-10-18T22:31:01.451Z,149.65
2022-10-18T22:33:27.748Z,148.77
2022-10-18T22:35:54.049Z,106.38
2022-10-18T22:38:20.297Z,98.38
2022-10-18T22:40:46.647Z,133.73
2022-10-18T22:43:12.907Z,148.32
2022-10-18T22:45:39.187Z,229.23
2022-10-18T22:48:05.442Z,229.32
2022-10-18T22:50:31.719Z,158.35
2022-10-18T22:52:57.980Z,155.13
2022-10-18T22:55:24.245Z,200.23
2022-10-18T22:57:50.496Z,290.17
2022-10-18T23:00:16.749Z,144.05
2022-10-18T23:02:43.040Z,144.80
2022-10-18T23:05:09.299Z,76.93
2022-10-18T23:07:35.622Z,87.55
2022-10-18T23:10:01.884Z,74.45
2022-10-18T23:12:28.156Z,147.43
2022-10-18T23:14:54.418Z,103.95
2022-10-18T23:17:20.680Z,76.60
2022-10-18T23:19:46.921Z,73.78
2022-10-18T23:22:14.883Z,79.57
2022-10-18T23:27:07.321Z,81.32
2022-10-18T23:29:33.576Z,98.20
2022-10-18T23:31:59.878Z,77.20
2022-10-18T23:34:26.129Z,87.03
2022-10-18T23:36:52.416Z,92.32
2022-10-18T23:39:18.673Z,70.32
2022-10-18T23:41:44.928Z,83.43
2022-10-18T23:44:11.433Z,94.60
2022-10-18T23:46:37.683Z,83.88
2022-10-18T23:49:03.981Z,83.80
2022-10-18T23:51:30.387Z,68.97
2022-10-18T23:53:56.655Z,74.25
2022-10-18T23:56:22.906Z,81.93
2022-10-18T23:58:49.349Z,84.70
